Time;durP1;ratioP1;P1;durP2;ratioP2;P2;SDS_P1;SDS_P2;PMS_P1;PMS_P2;Temp;Humidity;BMP_temperature;BMP_pressure;BME280_temperature;BME280_humidity;BME280_pressure;Samples;Min_cycle;Max_cycle;Signal;HPM_P1;HPM_P2
2022/01/04 00:01:58;;;;;;;3.40;0.70;;;10.90;99.90;;;;;;4977496;28;20473;-79
2022/01/04 00:04:24;;;;;;;0.60;0.60;;;10.90;99.90;;;;;;4975863;28;20256;-79
2022/01/04 00:06:49;;;;;;;0.80;0.80;;;10.80;99.90;;;;;;4974461;28;20504;-79
2022/01/04 00:09:15;;;;;;;1.60;0.73;;;10.80;99.90;;;;;;4974709;28;20175;-79
2022/01/04 00:14:15;;;;;;;1.13;0.80;;;10.80;99.90;;;;;;4973931;28;20220;-78
2022/01/04 00:16:43;;;;;;;1.07;0.70;;;10.80;99.90;;;;;;4973735;28;20473;-80
2022/01/04 00:19:09;;;;;;;1.13;0.93;;;10.70;99.90;;;;;;4974143;28;20175;-79
2022/01/04 00:21:36;;;;;;;2.93;0.80;;;10.70;99.90;;;;;;4974055;28;20434;-79
2022/01/04 00:24:02;;;;;;;1.27;0.60;;;10.70;99.90;;;;;;4973210;28;20184;-79
2022/01/04 00:26:28;;;;;;;0.70;0.70;;;10.70;99.90;;;;;;4976218;28;20426;-79
2022/01/04 00:28:53;;;;;;;2.20;0.80;;;10.70;99.90;;;;;;4976100;28;20169;-80
2022/01/04 00:31:19;;;;;;;0.90;0.80;;;10.80;99.90;;;;;;4975213;28;20462;-79
2022/01/04 00:33:45;;;;;;;1.13;0.70;;;10.80;99.90;;;;;;4976192;28;20186;-79
2022/01/04 00:36:10;;;;;;;2.73;0.80;;;10.80;99.90;;;;;;4976095;28;20205;-78
2022/01/04 00:38:36;;;;;;;0.70;0.70;;;10.70;99.90;;;;;;4976569;28;20174;-78
2022/01/04 00:41:01;;;;;;;0.90;0.77;;;10.70;99.90;;;;;;4975965;28;20193;-78
2022/01/04 00:43:27;;;;;;;2.03;0.60;;;10.70;99.90;;;;;;4975184;28;20179;-79
2022/01/04 00:45:53;;;;;;;0.60;0.50;;;10.70;99.90;;;;;;4976019;28;20246;-79
2022/01/04 00:50:45;;;;;;;3.03;0.90;;;10.80;99.90;;;;;;4975518;28;20236;-78
2022/01/04 00:53:10;;;;;;;0.90;0.70;;;10.70;99.90;;;;;;4974726;28;20418;-79
2022/01/04 00:55:36;;;;;;;0.70;0.70;;;10.70;99.90;;;;;;4975777;28;20466;-79
2022/01/04 00:58:02;;;;;;;1.33;1.03;;;10.70;99.90;;;;;;4975037;28;20187;-78
2022/01/04 05:32:56;;;;;;;1.13;1.03;;;10.60;99.90;;;;;;4931644;29;20430;-74
2022/01/04 05:35:21;;;;;;;4.63;0.77;;;10.60;99.90;;;;;;4925612;29;20476;-77
2022/01/04 05:37:47;;;;;;;1.63;0.70;;;10.60;99.90;;;;;;4934869;29;20179;-77
2022/01/04 05:40:12;;;;;;;1.47;0.87;;;10.60;99.90;;;;;;4934698;29;20176;-77
2022/01/04 05:42:38;;;;;;;0.77;0.60;;;10.50;99.90;;;;;;4951517;29;20203;-77
2022/01/04 05:45:05;;;;;;;0.77;0.77;;;10.50;99.90;;;;;;4953662;28;20551;-76
2022/01/04 05:47:30;;;;;;;1.03;0.90;;;10.50;99.90;;;;;;4952455;29;20714;-76
2022/01/04 05:49:57;;;;;;;1.30;0.80;;;10.50;99.90;;;;;;4953486;28;20418;-76
2022/01/04 05:52:22;;;;;;;1.00;1.00;;;10.50;99.90;;;;;;4953690;28;20223;-77
2022/01/04 05:54:49;;;;;;;0.90;0.60;;;10.50;99.90;;;;;;4953656;28;20415;-78
2022/01/04 05:57:16;;;;;;;0.60;0.60;;;10.50;99.90;;;;;;4953631;28;20194;-77
2022/01/04 05:59:41;;;;;;;0.80;0.80;;;10.50;99.90;;;;;;4954081;28;20455;-77
2022/01/04 06:02:07;;;;;;;0.57;0.57;;;10.50;99.90;;;;;;4953718;28;20538;-78
2022/01/04 06:04:32;;;;;;;0.90;0.90;;;10.50;99.90;;;;;;4953611;28;20183;-77
2022/01/04 06:06:58;;;;;;;1.37;0.73;;;10.50;99.90;;;;;;4955232;28;20668;-77
2022/01/04 06:09:28;;;;;;;0.87;0.87;;;10.50;99.90;;;;;;4954413;28;20186;-77
2022/01/04 06:17:06;;;;;;;1.07;0.60;;;10.60;99.90;;;;;;4960344;29;20549;-76
2022/01/04 06:19:32;;;;;;;0.80;0.80;;;10.60;99.90;;;;;;4957621;28;20511;-77
2022/01/04 06:21:58;;;;;;;1.10;1.00;;;10.60;99.90;;;;;;4956408;28;20541;-77
2022/01/04 06:24:23;;;;;;;2.83;0.70;;;10.60;99.90;;;;;;4957220;28;20618;-77
2022/01/04 06:26:49;;;;;;;0.83;0.70;;;10.60;99.90;;;;;;4957715;28;20234;-76
2022/01/04 06:29:14;;;;;;;1.90;0.80;;;10.60;99.90;;;;;;4956570;28;20588;-77
2022/01/04 06:31:44;;;;;;;1.30;1.20;;;10.50;99.90;;;;;;4956114;28;20238;-77
2022/01/04 06:34:09;;;;;;;0.73;0.73;;;10.60;99.90;;;;;;4956290;28;20622;-77
2022/01/04 06:36:35;;;;;;;0.80;0.70;;;10.60;99.90;;;;;;4957199;28;20500;-77
2022/01/04 06:39:00;;;;;;;1.27;0.83;;;10.60;99.90;;;;;;4957051;28;20699;-76
2022/01/04 06:41:26;;;;;;;1.87;0.60;;;10.60;99.90;;;;;;4957127;28;20334;-77
2022/01/04 06:43:51;;;;;;;1.00;0.80;;;10.60;99.90;;;;;;4946612;28;20216;-77
2022/01/04 06:46:17;;;;;;;0.70;0.70;;;10.60;99.90;;;;;;4958521;28;20679;-78
2022/01/04 06:48:42;;;;;;;0.70;0.67;;;10.60;99.90;;;;;;4956961;29;20190;-78
2022/01/04 06:51:09;;;;;;;1.27;0.73;;;10.60;99.90;;;;;;4956787;28;20238;-78
2022/01/04 06:53:35;;;;;;;1.97;0.80;;;10.60;99.90;;;;;;4955640;29;20184;-78
2022/01/04 06:56:00;;;;;;;1.67;0.80;;;10.60;99.90;;;;;;4956570;28;20465;-78
2022/01/04 06:58:26;;;;;;;1.00;0.90;;;10.60;99.90;;;;;;4956605;28;20931;-77
2022/01/04 07:00:52;;;;;;;2.03;0.60;;;10.60;99.90;;;;;;4956774;28;20673;-78
2022/01/04 07:03:18;;;;;;;0.90;0.70;;;10.60;99.90;;;;;;4956307;28;20505;-79
2022/01/04 07:05:43;;;;;;;0.90;0.90;;;10.70;99.90;;;;;;4956580;28;20192;-78
2022/01/04 07:08:09;;;;;;;1.10;0.60;;;10.70;99.90;;;;;;4956171;28;20214;-78
2022/01/04 07:10:34;;;;;;;0.60;0.60;;;10.70;99.90;;;;;;4954145;28;20187;-78
2022/01/04 07:13:00;;;;;;;0.83;0.60;;;10.70;99.90;;;;;;4945883;29;20190;-76
2022/01/04 07:15:25;;;;;;;0.70;0.70;;;10.70;99.90;;;;;;4956511;28;21231;-77
2022/01/04 07:17:51;;;;;;;3.93;0.83;;;10.80;99.90;;;;;;4942752;29;20191;-77
2022/01/04 07:20:16;;;;;;;1.23;0.60;;;10.80;99.90;;;;;;4936388;29;20270;-75
2022/01/04 07:22:42;;;;;;;0.60;0.50;;;10.90;99.90;;;;;;4941166;29;20306;-77
2022/01/04 07:25:08;;;;;;;0.80;0.70;;;11.00;99.90;;;;;;4937932;28;20260;-77
2022/01/04 07:27:33;;;;;;;0.57;0.50;;;11.00;99.90;;;;;;4952935;29;20200;-77
2022/01/04 07:29:59;;;;;;;1.00;0.80;;;11.00;99.90;;;;;;4955746;28;20462;-76
2022/01/04 07:32:25;;;;;;;0.70;0.60;;;11.00;99.90;;;;;;4956286;28;20616;-76
2022/01/04 07:34:50;;;;;;;0.60;0.60;;;11.00;99.90;;;;;;4952730;29;20190;-76
2022/01/04 07:37:16;;;;;;;0.60;0.60;;;11.00;99.90;;;;;;4955970;28;20183;-76
2022/01/04 07:39:42;;;;;;;0.90;0.60;;;11.10;99.90;;;;;;4950327;28;20183;-77
2022/01/04 07:42:08;;;;;;;2.80;0.63;;;11.10;99.90;;;;;;4954653;28;20199;-75
2022/01/04 07:44:34;;;;;;;1.63;0.50;;;11.10;99.90;;;;;;4955926;28;20261;-77
2022/01/04 07:46:59;;;;;;;3.93;0.57;;;11.10;99.90;;;;;;4938010;28;20227;-76
2022/01/04 07:49:25;;;;;;;2.17;0.90;;;11.10;99.90;;;;;;4936167;29;20427;-76
2022/01/04 07:51:52;;;;;;;0.93;0.77;;;11.20;99.90;;;;;;4942509;29;20208;-77
2022/01/04 07:54:17;;;;;;;1.10;0.60;;;11.20;99.90;;;;;;4946068;28;20533;-77
2022/01/04 07:56:43;;;;;;;1.13;0.80;;;11.20;99.90;;;;;;4951672;28;20918;-77
2022/01/04 07:59:08;;;;;;;0.80;0.70;;;11.30;99.90;;;;;;4943483;28;20707;-77
2022/01/04 08:01:34;;;;;;;0.80;0.80;;;11.30;99.90;;;;;;4958903;23;20241;-74
2022/01/04 08:04:04;;;;;;;0.60;0.50;;;11.30;99.90;;;;;;4969970;28;20228;-74
2022/01/04 08:06:30;;;;;;;0.83;0.57;;;11.30;99.90;;;;;;4970091;28;20194;-76
2022/01/04 08:08:56;;;;;;;0.60;0.57;;;11.30;99.90;;;;;;4976016;28;20904;-73
2022/01/04 08:11:22;;;;;;;0.90;0.90;;;11.40;99.90;;;;;;4974771;28;20448;-73
2022/01/04 08:13:49;;;;;;;0.70;0.70;;;11.40;99.90;;;;;;4972737;28;20187;-73
2022/01/04 08:16:15;;;;;;;0.83;0.70;;;11.40;99.90;;;;;;4974468;28;20209;-74
2022/01/04 08:18:42;;;;;;;0.90;0.60;;;11.50;99.90;;;;;;4969526;28;20844;-73
2022/01/04 08:21:07;;;;;;;0.67;0.67;;;11.50;99.90;;;;;;4971628;28;20826;-73
2022/01/04 08:23:33;;;;;;;1.20;1.10;;;11.50;99.90;;;;;;4964534;28;20430;-73
2022/01/04 08:25:59;;;;;;;0.70;0.70;;;11.50;99.90;;;;;;4956676;28;20282;-74
2022/01/04 08:28:25;;;;;;;1.30;1.10;;;11.50;99.90;;;;;;4955514;28;20585;-74
2022/01/04 08:30:51;;;;;;;1.27;1.10;;;11.60;99.90;;;;;;4970367;28;20279;-74
2022/01/04 08:33:17;;;;;;;1.27;1.13;;;11.60;99.90;;;;;;4974447;28;20807;-73
2022/01/04 08:35:43;;;;;;;3.50;2.60;;;11.60;99.90;;;;;;4974373;28;20506;-74
2022/01/04 08:38:09;;;;;;;2.13;1.93;;;11.60;99.90;;;;;;4972453;28;20213;-73
2022/01/04 08:40:34;;;;;;;1.40;0.93;;;11.60;99.90;;;;;;4974356;28;20922;-73
2022/01/04 08:43:00;;;;;;;0.70;0.70;;;11.60;99.90;;;;;;4974654;28;20603;-73
2022/01/04 08:45:27;;;;;;;0.97;0.90;;;11.70;99.90;;;;;;4958428;28;20675;-73
2022/01/04 08:47:53;;;;;;;0.73;0.67;;;11.70;99.90;;;;;;4963485;28;20655;-74
2022/01/04 08:50:19;;;;;;;0.90;0.90;;;11.70;99.90;;;;;;4973956;28;20505;-73
2022/01/04 08:52:45;;;;;;;0.80;0.80;;;11.70;99.90;;;;;;4973963;28;20409;-73
2022/01/04 08:55:11;;;;;;;1.20;1.10;;;11.80;99.90;;;;;;4974097;28;20516;-73
2022/01/04 08:57:38;;;;;;;0.83;0.80;;;11.70;99.90;;;;;;4965815;28;20285;-73
2022/01/04 09:00:09;;;;;;;2.57;0.70;;;11.80;99.90;;;;;;4963594;28;20447;-73
2022/01/04 09:02:35;;;;;;;0.97;0.70;;;11.80;99.90;;;;;;4962687;28;20550;-73
2022/01/04 09:05:01;;;;;;;1.47;0.73;;;11.80;99.90;;;;;;4962803;28;20542;-73
2022/01/04 09:07:27;;;;;;;3.23;0.70;;;11.80;99.90;;;;;;4961756;28;20210;-73
2022/01/04 09:09:53;;;;;;;2.40;0.70;;;11.90;99.90;;;;;;4962860;28;20462;-73
2022/01/04 09:12:22;;;;;;;1.53;0.60;;;11.90;99.90;;;;;;4963217;28;20269;-73
2022/01/04 09:14:57;;;;;;;1.97;0.83;;;12.00;99.90;;;;;;4962207;28;20456;-73
2022/01/04 09:20:12;;;;;;;3.57;1.10;;;12.00;99.90;;;;;;4962846;28;20422;-73
2022/01/04 09:22:38;;;;;;;0.73;0.70;;;12.00;99.90;;;;;;4962472;28;20422;-73
2022/01/04 09:25:05;;;;;;;0.73;0.60;;;12.00;99.90;;;;;;4962848;28;20990;-73
2022/01/04 09:27:31;;;;;;;1.03;0.60;;;12.00;99.90;;;;;;4962819;28;20442;-72
2022/01/04 09:29:57;;;;;;;1.80;0.93;;;12.00;99.90;;;;;;4963011;28;20472;-72
2022/01/04 09:32:23;;;;;;;0.60;0.60;;;12.00;99.90;;;;;;4962715;28;20366;-74
2022/01/04 09:34:49;;;;;;;0.70;0.60;;;12.00;99.90;;;;;;4960860;28;20206;-73
2022/01/04 09:37:15;;;;;;;0.60;0.60;;;12.00;99.90;;;;;;4961950;28;20197;-73
2022/01/04 09:39:41;;;;;;;0.97;0.90;;;11.90;99.90;;;;;;4962007;28;20516;-73
2022/01/04 09:42:08;;;;;;;0.77;0.70;;;11.90;99.90;;;;;;4962380;28;20486;-73
2022/01/04 09:44:34;;;;;;;1.07;0.90;;;11.90;99.90;;;;;;4962696;28;20453;-73
2022/01/04 09:47:02;;;;;;;0.60;0.60;;;11.80;99.90;;;;;;4961850;28;20439;-73
2022/01/04 09:49:29;;;;;;;1.03;0.97;;;11.90;99.90;;;;;;4959067;28;20454;-72
2022/01/04 09:51:56;;;;;;;1.27;1.00;;;11.90;99.90;;;;;;4961108;28;20809;-74
2022/01/04 09:54:24;;;;;;;1.17;0.83;;;11.90;99.90;;;;;;4959635;28;20533;-73
2022/01/04 09:56:50;;;;;;;0.60;0.60;;;11.90;99.90;;;;;;4963720;28;20480;-73
2022/01/04 09:59:17;;;;;;;1.13;0.63;;;11.90;99.90;;;;;;4961227;28;21062;-73
2022/01/04 10:01:51;;;;;;;0.60;0.60;;;11.90;99.90;;;;;;4962761;28;20505;-73
2022/01/04 10:04:24;;;;;;;2.30;0.90;;;11.90;99.90;;;;;;4963148;28;20442;-73
2022/01/04 10:07:05;;;;;;;0.50;0.50;;;11.90;99.90;;;;;;4963796;28;20454;-72
2022/01/04 10:09:46;;;;;;;2.97;1.30;;;11.90;99.90;;;;;;4961503;28;20435;-73
2022/01/04 10:12:14;;;;;;;1.63;1.20;;;11.90;99.90;;;;;;4963806;28;20450;-73
2022/01/04 10:14:43;;;;;;;2.80;0.90;;;11.90;99.90;;;;;;4962895;28;20795;-73
2022/01/04 10:17:20;;;;;;;1.43;0.80;;;11.90;99.90;;;;;;4968630;28;20447;-74
2022/01/04 10:19:53;;;;;;;0.80;0.80;;;11.90;99.90;;;;;;4966798;28;20442;-73
2022/01/04 10:22:23;;;;;;;1.77;0.70;;;12.00;99.90;;;;;;4960809;28;20541;-73
2022/01/04 10:25:11;;;;;;;0.90;0.80;;;11.90;99.90;;;;;;4961821;28;20472;-72
2022/01/04 10:27:47;;;;;;;1.20;0.90;;;11.90;99.90;;;;;;4973814;28;20429;-73
2022/01/04 10:30:39;;;;;;;1.40;1.30;;;12.00;99.90;;;;;;4973209;28;20417;-72
2022/01/04 10:33:07;;;;;;;0.93;0.70;;;12.00;99.90;;;;;;4975248;28;20910;-72
2022/01/04 10:35:37;;;;;;;1.67;1.03;;;12.00;99.90;;;;;;4983304;28;20465;-72
2022/01/04 10:38:20;;;;;;;0.60;0.60;;;12.00;99.90;;;;;;4974232;28;20423;-72
2022/01/04 10:41:04;;;;;;;0.70;0.70;;;12.10;99.90;;;;;;4972610;28;20849;-72
2022/01/04 10:43:33;;;;;;;0.93;0.80;;;12.10;99.90;;;;;;4983158;28;20480;-72
2022/01/04 10:46:00;;;;;;;2.40;1.30;;;12.20;99.90;;;;;;4983023;28;20425;-73
2022/01/04 10:48:32;;;;;;;0.87;0.70;;;12.20;99.90;;;;;;4991527;28;20576;-73
2022/01/04 10:51:03;;;;;;;2.83;0.97;;;12.20;99.90;;;;;;4990847;28;20541;-73
2022/01/04 10:53:39;;;;;;;0.80;0.80;;;12.20;99.90;;;;;;4990578;28;20418;-73
2022/01/04 10:56:07;;;;;;;0.90;0.90;;;12.20;99.90;;;;;;4991837;28;20500;-73
2022/01/04 10:58:35;;;;;;;1.70;0.90;;;12.20;99.90;;;;;;4991941;28;20410;-73
2022/01/04 11:01:05;;;;;;;1.63;1.23;;;12.10;99.90;;;;;;4993011;28;20585;-73
2022/01/04 11:03:33;;;;;;;1.23;1.13;;;12.10;99.90;;;;;;4995532;28;20437;-73
2022/01/04 11:06:05;;;;;;;1.70;1.20;;;12.10;99.90;;;;;;4994328;28;20426;-73
2022/01/04 11:08:31;;;;;;;1.13;1.13;;;12.10;99.90;;;;;;4994324;28;20434;-73
2022/01/04 11:10:59;;;;;;;1.60;1.50;;;12.20;99.90;;;;;;4975170;28;20442;-72
2022/01/04 11:13:24;;;;;;;2.50;1.33;;;12.20;99.90;;;;;;4982025;28;20933;-73
2022/01/04 11:15:51;;;;;;;1.43;1.10;;;12.20;99.90;;;;;;4983690;28;20469;-73
2022/01/04 11:18:17;;;;;;;2.70;1.57;;;12.30;99.90;;;;;;4983911;28;20191;-72
2022/01/04 11:20:45;;;;;;;2.40;1.37;;;12.30;99.90;;;;;;4983627;28;20455;-73
2022/01/04 11:23:13;;;;;;;1.43;1.33;;;12.30;99.90;;;;;;4980708;28;20212;-72
2022/01/04 11:25:42;;;;;;;1.67;1.57;;;12.30;99.90;;;;;;4976986;28;20462;-73
2022/01/04 11:28:09;;;;;;;1.60;1.50;;;12.30;99.90;;;;;;4975428;28;20511;-73
2022/01/04 11:30:45;;;;;;;2.10;2.00;;;12.20;99.90;;;;;;4971907;28;20803;-73
2022/01/04 11:33:35;;;;;;;2.80;2.60;;;12.20;99.90;;;;;;4976260;28;20473;-73
2022/01/04 11:36:01;;;;;;;2.50;1.63;;;12.20;99.90;;;;;;4974670;28;20479;-73
2022/01/04 11:38:34;;;;;;;5.63;2.07;;;12.10;99.90;;;;;;4974553;28;20827;-73
2022/01/04 11:41:00;;;;;;;4.00;1.80;;;12.10;99.90;;;;;;4975120;28;20773;-73
2022/01/04 11:43:32;;;;;;;1.63;1.43;;;12.10;99.90;;;;;;4974993;28;20479;-73
2022/01/04 11:45:58;;;;;;;3.00;2.00;;;12.10;99.90;;;;;;4975182;28;20443;-72
2022/01/04 11:48:34;;;;;;;2.27;1.20;;;12.10;99.90;;;;;;4974820;28;20506;-72
2022/01/04 11:51:09;;;;;;;3.80;1.43;;;12.00;99.90;;;;;;4975328;28;20977;-73
2022/01/04 11:53:36;;;;;;;3.20;1.37;;;12.00;99.90;;;;;;4974928;28;20808;-73
2022/01/04 11:56:09;;;;;;;1.67;1.57;;;12.00;99.90;;;;;;4974893;28;20470;-72
2022/01/04 11:58:48;;;;;;;2.80;2.07;;;12.10;99.90;;;;;;4975110;28;20486;-73
2022/01/04 12:01:16;;;;;;;3.47;2.20;;;12.00;99.90;;;;;;4973480;28;20820;-73
2022/01/04 12:03:47;;;;;;;4.17;2.13;;;12.00;99.90;;;;;;4971677;28;20462;-72
2022/01/04 12:06:16;;;;;;;2.87;1.60;;;12.00;99.90;;;;;;4967117;28;20538;-73
2022/01/04 12:08:48;;;;;;;5.17;1.90;;;12.00;99.90;;;;;;4963384;28;20494;-73
2022/01/04 12:11:19;;;;;;;4.30;1.90;;;12.00;99.90;;;;;;4963581;28;20442;-72
2022/01/04 12:13:50;;;;;;;4.57;3.30;;;12.00;99.90;;;;;;4962099;28;20440;-73
2022/01/04 12:16:28;;;;;;;1.50;1.40;;;12.00;99.90;;;;;;4965088;28;20467;-73
2022/01/04 12:18:57;;;;;;;6.20;3.50;;;12.00;99.90;;;;;;4962216;28;20435;-73
2022/01/04 12:21:32;;;;;;;3.40;2.17;;;11.90;99.90;;;;;;4961141;28;20540;-72
2022/01/04 12:23:58;;;;;;;3.53;1.70;;;11.90;99.90;;;;;;4962410;28;20443;-73
2022/01/04 12:26:26;;;;;;;3.20;2.70;;;11.90;99.90;;;;;;4962556;28;20475;-72
2022/01/04 12:28:55;;;;;;;5.07;2.17;;;11.90;99.90;;;;;;4962844;28;20847;-73
2022/01/04 12:31:24;;;;;;;3.10;1.73;;;11.80;99.90;;;;;;4962949;28;20446;-72
2022/01/04 12:33:51;;;;;;;3.80;1.50;;;11.80;99.90;;;;;;4962667;28;20522;-72
2022/01/04 12:36:29;;;;;;;4.10;1.77;;;11.80;99.90;;;;;;4962616;28;20480;-73
2022/01/04 12:38:58;;;;;;;2.53;1.40;;;11.80;99.90;;;;;;4962458;28;20494;-73
2022/01/04 12:41:25;;;;;;;3.63;1.93;;;11.80;99.90;;;;;;4960179;28;20587;-73
2022/01/04 12:43:51;;;;;;;7.37;3.20;;;11.80;99.90;;;;;;4961532;28;20840;-73
2022/01/04 12:46:31;;;;;;;2.67;2.47;;;11.80;99.90;;;;;;4962059;28;20436;-73
2022/01/04 12:49:01;;;;;;;3.47;2.33;;;11.80;99.90;;;;;;4961966;28;20451;-73
2022/01/04 12:51:31;;;;;;;2.53;2.30;;;11.80;99.90;;;;;;4962718;28;20542;-73
2022/01/04 12:54:08;;;;;;;2.30;2.10;;;11.80;99.90;;;;;;4962862;28;20856;-73
2022/01/04 12:56:51;;;;;;;2.03;1.80;;;11.70;99.90;;;;;;4961654;28;20473;-73
2022/01/04 12:59:22;;;;;;;3.43;1.70;;;11.70;99.90;;;;;;4962406;28;20442;-73
2022/01/04 13:01:50;;;;;;;2.83;1.40;;;11.70;99.90;;;;;;4962185;28;20462;-73
2022/01/04 13:04:28;;;;;;;1.90;1.80;;;11.70;99.90;;;;;;4960575;28;20440;-73
2022/01/04 13:06:55;;;;;;;2.93;1.40;;;11.60;99.90;;;;;;4958301;28;20461;-73
2022/01/04 13:09:23;;;;;;;3.97;1.67;;;11.60;99.90;;;;;;4958944;28;20447;-73
2022/01/04 13:11:50;;;;;;;4.13;1.67;;;11.60;99.90;;;;;;4956592;28;20444;-74
2022/01/04 13:14:24;;;;;;;2.30;1.87;;;11.60;99.90;;;;;;4958622;28;20436;-72
2022/01/04 13:17:00;;;;;;;4.87;1.40;;;11.50;99.90;;;;;;4968935;28;21157;-73
2022/01/04 13:19:25;;;;;;;2.53;2.07;;;11.50;99.90;;;;;;4958008;28;20518;-73
2022/01/04 13:22:00;;;;;;;1.67;1.20;;;11.50;99.90;;;;;;4965671;28;20438;-73
2022/01/04 13:24:36;;;;;;;3.57;1.90;;;11.50;99.90;;;;;;4961426;28;20196;-72
2022/01/04 13:27:18;;;;;;;3.90;1.20;;;11.40;99.90;;;;;;4961626;28;20431;-73
2022/01/04 13:29:53;;;;;;;1.03;0.93;;;11.50;99.90;;;;;;4962007;28;20423;-73
2022/01/04 13:32:28;;;;;;;1.87;1.50;;;11.40;99.90;;;;;;4961593;28;20438;-73
2022/01/04 13:34:59;;;;;;;6.00;1.20;;;11.40;99.90;;;;;;4961444;28;20979;-73
2022/01/04 13:37:25;;;;;;;1.00;0.90;;;11.40;99.90;;;;;;4961033;28;20522;-73
2022/01/04 13:39:51;;;;;;;0.97;0.97;;;11.40;99.90;;;;;;4961603;28;20430;-74
2022/01/04 13:42:36;;;;;;;3.30;1.07;;;11.40;99.90;;;;;;4962350;28;20628;-73
2022/01/04 13:45:08;;;;;;;1.97;1.10;;;11.40;99.90;;;;;;4962763;28;20954;-72
2022/01/04 13:47:36;;;;;;;2.50;1.20;;;11.40;99.90;;;;;;4961410;28;20463;-72
2022/01/04 13:50:14;;;;;;;2.97;1.27;;;11.40;99.90;;;;;;4960720;28;20933;-72
2022/01/04 13:52:40;;;;;;;1.90;1.10;;;11.40;99.90;;;;;;4959503;28;20851;-73
2022/01/04 13:55:07;;;;;;;1.10;0.93;;;11.40;99.90;;;;;;4960786;28;20526;-73
2022/01/04 13:57:33;;;;;;;1.00;1.00;;;11.40;99.90;;;;;;4960672;28;20526;-73
2022/01/04 14:00:21;;;;;;;2.50;0.70;;;11.20;99.90;;;;;;4962140;28;21002;-73
2022/01/04 14:02:46;;;;;;;1.50;0.63;;;10.90;99.90;;;;;;4962430;28;20202;-73
2022/01/04 14:05:13;;;;;;;0.70;0.70;;;10.40;99.90;;;;;;4960809;28;20438;-74
2022/01/04 14:07:39;;;;;;;0.70;0.70;;;10.10;99.90;;;;;;4961926;28;20278;-74
2022/01/04 14:10:05;;;;;;;0.70;0.70;;;9.70;99.90;;;;;;4961907;28;20513;-73
2022/01/04 14:12:30;;;;;;;2.33;0.90;;;9.40;99.90;;;;;;4959927;28;20211;-73
2022/01/04 14:14:57;;;;;;;0.73;0.73;;;9.10;99.90;;;;;;4960932;28;20458;-74
2022/01/04 14:17:25;;;;;;;2.00;1.13;;;9.00;99.90;;;;;;4961427;28;20221;-73
2022/01/04 14:19:55;;;;;;;2.20;1.30;;;8.80;99.90;;;;;;4960858;28;20570;-73
2022/01/04 14:22:23;;;;;;;2.10;1.30;;;8.60;99.90;;;;;;4961897;28;20455;-73
2022/01/04 14:25:00;;;;;;;1.27;1.10;;;8.60;99.90;;;;;;4961071;28;20638;-73
2022/01/04 14:27:30;;;;;;;1.00;0.90;;;8.40;99.90;;;;;;4961144;28;20438;-74
2022/01/04 14:30:07;;;;;;;1.67;0.90;;;8.30;99.90;;;;;;4961112;28;20497;-73
2022/01/04 14:32:40;;;;;;;2.17;1.23;;;8.20;99.90;;;;;;4961600;28;20447;-73
2022/01/04 14:35:10;;;;;;;1.60;1.50;;;8.00;99.90;;;;;;4960136;28;20437;-73
2022/01/04 14:37:38;;;;;;;1.30;1.20;;;7.90;99.90;;;;;;4964477;28;21265;-73
2022/01/04 14:40:06;;;;;;;1.33;1.23;;;7.90;99.90;;;;;;4965304;28;20444;-73
2022/01/04 14:42:31;;;;;;;1.83;1.73;;;7.80;99.90;;;;;;4963705;28;20423;-73
2022/01/04 14:44:57;;;;;;;1.83;1.73;;;7.80;99.90;;;;;;4965122;28;20445;-73
2022/01/04 14:47:23;;;;;;;2.33;2.10;;;7.70;99.90;;;;;;4964033;28;20725;-72
2022/01/04 14:49:48;;;;;;;2.13;2.03;;;7.70;99.90;;;;;;4963315;28;20206;-73
2022/01/04 14:52:14;;;;;;;2.00;1.90;;;7.70;99.90;;;;;;4964927;28;20586;-74
2022/01/04 14:54:40;;;;;;;1.63;1.50;;;7.60;99.90;;;;;;4964699;28;20760;-73
2022/01/04 14:57:06;;;;;;;2.60;1.60;;;7.50;99.90;;;;;;4964779;28;20351;-73
2022/01/04 14:59:32;;;;;;;2.63;1.13;;;7.50;99.90;;;;;;4964697;28;20697;-73
2022/01/04 15:01:57;;;;;;;2.67;1.23;;;7.30;99.90;;;;;;4964906;28;20469;-73
2022/01/04 15:04:23;;;;;;;0.93;0.93;;;7.20;99.90;;;;;;4965347;28;20471;-73
2022/01/04 15:06:49;;;;;;;2.27;1.47;;;7.20;99.90;;;;;;4964642;28;20235;-73
2022/01/04 15:09:15;;;;;;;1.27;1.17;;;7.20;99.90;;;;;;4963644;28;20272;-73
2022/01/04 15:11:43;;;;;;;0.90;0.90;;;7.10;99.90;;;;;;4963581;28;20466;-72
2022/01/04 15:14:09;;;;;;;0.70;0.70;;;7.00;99.90;;;;;;4962220;28;20204;-73
2022/01/04 15:16:35;;;;;;;1.00;1.00;;;6.90;99.90;;;;;;4963366;28;20472;-72
2022/01/04 15:19:01;;;;;;;0.87;0.70;;;6.90;99.90;;;;;;4963367;28;20447;-73
2022/01/04 15:21:28;;;;;;;0.80;0.80;;;6.90;99.90;;;;;;4963536;28;20247;-73
2022/01/04 15:23:53;;;;;;;0.83;0.83;;;6.90;99.90;;;;;;4965387;28;20651;-73
2022/01/04 15:26:19;;;;;;;2.47;0.60;;;6.80;99.90;;;;;;4962803;28;20517;-73
2022/01/04 15:28:45;;;;;;;0.70;0.70;;;6.80;99.90;;;;;;4962935;28;20234;-73
2022/01/04 15:31:13;;;;;;;0.70;0.70;;;6.80;99.90;;;;;;4963171;28;20278;-73
2022/01/04 15:33:38;;;;;;;0.70;0.70;;;6.60;99.90;;;;;;4962156;28;20378;-73
2022/01/04 15:36:06;;;;;;;0.60;0.60;;;6.60;99.90;;;;;;4963881;28;21081;-73
2022/01/04 15:38:32;;;;;;;2.50;0.77;;;6.50;99.90;;;;;;4961888;28;20211;-73
2022/01/04 15:40:59;;;;;;;0.60;0.60;;;6.50;99.90;;;;;;4963372;28;20557;-73
2022/01/04 15:43:26;;;;;;;1.90;0.70;;;6.50;99.90;;;;;;4962092;28;20458;-73
2022/01/04 15:45:51;;;;;;;1.70;0.70;;;6.40;99.90;;;;;;4963141;28;20467;-73
2022/01/04 15:48:17;;;;;;;0.73;0.73;;;6.30;99.90;;;;;;4961607;28;20453;-73
2022/01/04 15:50:46;;;;;;;1.67;0.80;;;6.30;99.90;;;;;;4963204;28;20227;-73
2022/01/04 15:53:12;;;;;;;1.03;0.90;;;6.30;99.90;;;;;;4963099;28;20275;-73
2022/01/04 15:55:38;;;;;;;1.00;1.00;;;6.30;99.90;;;;;;4962429;28;20482;-73
2022/01/04 15:58:04;;;;;;;10.40;1.63;;;6.20;99.90;;;;;;4962846;28;20205;-73
2022/01/04 16:00:29;;;;;;;1.07;1.03;;;6.30;99.90;;;;;;4963477;28;20212;-73
2022/01/04 16:02:55;;;;;;;0.80;0.80;;;6.20;99.90;;;;;;4962877;28;20203;-73
2022/01/04 16:05:21;;;;;;;1.80;1.33;;;6.20;99.90;;;;;;4962801;28;20665;-73
2022/01/04 16:07:46;;;;;;;0.80;0.80;;;6.20;99.90;;;;;;4963971;28;20200;-73
2022/01/04 16:10:12;;;;;;;3.03;1.50;;;6.20;99.90;;;;;;4962333;28;20259;-72
2022/01/04 16:12:38;;;;;;;1.77;1.17;;;6.20;99.90;;;;;;4962449;28;20254;-73
2022/01/04 16:15:07;;;;;;;1.20;1.20;;;6.10;99.90;;;;;;4964063;28;20197;-73
2022/01/04 16:22:44;;;;;;;2.93;2.17;;;6.10;99.90;;;;;;4963740;28;20209;-73
2022/01/04 16:25:10;;;;;;;2.60;2.40;;;6.00;99.90;;;;;;4962842;28;20515;-73
2022/01/04 16:27:36;;;;;;;1.60;1.50;;;6.00;99.90;;;;;;4964955;28;20520;-73
2022/01/04 16:30:04;;;;;;;2.30;2.20;;;6.00;99.90;;;;;;4962093;28;20196;-72
2022/01/04 16:32:30;;;;;;;3.20;2.37;;;6.10;99.90;;;;;;4962122;28;20447;-74
2022/01/04 16:34:55;;;;;;;1.83;1.73;;;6.10;99.90;;;;;;4963695;28;20436;-73
2022/01/04 16:37:21;;;;;;;2.23;2.10;;;6.10;99.90;;;;;;4962649;28;20642;-73
2022/01/04 16:39:48;;;;;;;1.60;1.50;;;6.10;99.90;;;;;;4961879;28;20199;-73
2022/01/04 16:42:14;;;;;;;1.70;1.60;;;6.10;99.90;;;;;;4962708;28;20437;-73
2022/01/04 16:44:40;;;;;;;2.30;2.20;;;6.00;99.90;;;;;;4961929;28;20495;-73
2022/01/04 16:47:07;;;;;;;2.27;1.80;;;6.00;99.90;;;;;;4962621;28;20448;-73
2022/01/04 16:49:33;;;;;;;1.10;1.10;;;6.00;99.90;;;;;;4960996;28;20694;-73
2022/01/04 16:52:02;;;;;;;0.73;0.73;;;6.00;99.90;;;;;;4960998;28;20458;-73
2022/01/04 16:54:30;;;;;;;1.20;0.70;;;6.00;99.90;;;;;;4960763;28;20455;-73
2022/01/04 16:56:56;;;;;;;1.00;1.00;;;5.90;99.90;;;;;;4962372;28;21007;-72
2022/01/04 16:59:23;;;;;;;1.50;1.40;;;5.90;99.90;;;;;;4962583;28;20498;-73
2022/01/04 17:01:49;;;;;;;1.67;1.37;;;5.90;99.90;;;;;;4960819;28;20450;-73
2022/01/04 17:04:20;;;;;;;2.00;1.90;;;6.00;99.90;;;;;;4962199;28;20527;-73
2022/01/04 17:06:50;;;;;;;2.20;2.07;;;6.00;99.90;;;;;;4962152;28;20197;-73
2022/01/04 17:09:19;;;;;;;3.07;2.27;;;6.00;99.90;;;;;;4962421;28;20475;-73
2022/01/04 17:17:27;;;;;;;8.20;3.80;;;5.90;99.90;;;;;;4960495;28;20420;-73
2022/01/04 17:19:53;;;;;;;2.50;2.30;;;5.90;99.90;;;;;;4961373;28;20940;-73
2022/01/04 17:22:18;;;;;;;2.17;2.00;;;5.90;99.90;;;;;;4961951;28;20278;-73
2022/01/04 17:24:44;;;;;;;2.90;2.33;;;5.80;99.90;;;;;;4955104;28;20183;-73
2022/01/04 17:27:10;;;;;;;2.40;2.20;;;5.80;99.90;;;;;;4952784;28;20300;-73
2022/01/04 17:29:35;;;;;;;2.27;2.10;;;5.90;99.90;;;;;;4953655;28;20225;-73
2022/01/04 17:32:01;;;;;;;2.30;2.20;;;5.80;99.90;;;;;;4954015;28;20203;-73
2022/01/04 17:34:28;;;;;;;3.50;3.20;;;5.80;99.90;;;;;;4953979;28;20178;-73
2022/01/04 17:36:55;;;;;;;2.70;2.50;;;5.70;99.90;;;;;;4954057;28;20232;-73
2022/01/04 17:39:23;;;;;;;3.30;2.77;;;5.70;99.90;;;;;;4954032;28;20808;-73
2022/01/04 17:41:50;;;;;;;3.10;2.63;;;5.70;99.90;;;;;;4955592;28;20437;-72
2022/01/04 17:44:16;;;;;;;4.33;3.43;;;5.70;99.90;;;;;;4954320;28;20417;-73
2022/01/04 17:46:42;;;;;;;4.03;3.40;;;5.70;99.90;;;;;;4954223;28;20427;-73
2022/01/04 17:49:08;;;;;;;8.67;6.10;;;5.70;99.90;;;;;;4977139;28;20943;-71
2022/01/04 17:51:35;;;;;;;6.40;3.60;;;5.70;99.90;;;;;;4969062;28;20537;-71